This is the latest recevied weather packets stored in our database for station/object EA3FHP. If no packets are shown the sender has not sent any weather packets the latest 10 day(s).
| Time | Temp. | Humidity | Pressure | Rain* | Wind** | Luminosity | Snow |
|---|---|---|---|---|---|---|---|
| 1787668804 | 32.22° C | 32% | 1014.5 hPa | 0 mm | - | - | - |
| 1787668203 | 32.78° C | 30% | 1014.5 hPa | 0 mm | - | - | - |
| 1787667603 | 32.78° C | 31% | 1014.5 hPa | 0 mm | - | - | - |
| 1787667003 | 32.22° C | 33% | 1014.4 hPa | 0 mm | - | - | - |
| 1787666405 | 32.22° C | 32% | 1014.8 hPa | 0 mm | - | - | - |
| 1787665803 | 32.22° C | 31% | 1014.9 hPa | 0 mm | - | - | - |
| 1787665204 | 31.67° C | 32% | 1014.9 hPa | 0 mm | - | - | - |
| 1787664603 | 31.67° C | 31% | 1014.9 hPa | 0 mm | - | - | - |
| 1787664004 | 31.67° C | 31% | 1015 hPa | 0 mm | - | - | - |
| 1787663403 | 31.67° C | 31% | 1014.9 hPa | 0 mm | - | - | - |
| 1787662803 | 31.67° C | 32% | 1015.1 hPa | 0 mm | - | - | - |
| 1787662203 | 31.67° C | 32% | 1014.9 hPa | 0 mm | - | - | - |
| 1787661603 | 31.67° C | 31% | 1015.1 hPa | 0 mm | - | - | - |
| 1787661003 | 31.11° C | 33% | 1015.2 hPa | 0 mm | - | - | - |
| 1787660403 | 31.11° C | 34% | 1015.4 hPa | 0 mm | - | - | - |
| 1787659803 | 31.11° C | 33% | 1015.4 hPa | 0 mm | - | - | - |
| 1787659203 | 30.56° C | 35% | 1015.4 hPa | 0 mm | - | - | - |
| 1787658603 | 30.56° C | 36% | 1015.5 hPa | 0 mm | - | - | - |
| 1787658004 | 30° C | 36% | 1015.5 hPa | 0 mm | - | - | - |
| 1787657403 | 30° C | 36% | 1015.5 hPa | 0 mm | - | - | - |
| 1787656803 | 30° C | 37% | 1015.5 hPa | 0 mm | - | - | - |
| 1787656203 | 30° C | 38% | 1015.7 hPa | 0 mm | - | - | - |
| 1787655604 | 30° C | 39% | 1015.6 hPa | 0 mm | - | - | - |
| 1787655003 | 29.44° C | 43% | 1015.7 hPa | 0 mm | - | - | - |
| 1787654403 | 28.89° C | 42% | 1015.6 hPa | 0 mm | - | - | - |
* Rain latest hour (hover to see other rain measurements)
** Current wind speed in m/s (hover to see current wind gust speed)